Time;durP1;ratioP1;P1;durP2;ratioP2;P2;SDS_P1;SDS_P2;PMS_P1;PMS_P2;Temp;Humidity;BMP_temperature;BMP_pressure;BME280_temperature;BME280_humidity;BME280_pressure;Samples;Min_cycle;Max_cycle;Signal;HPM_P1;HPM_P2
2024/05/03 00:11:56;;;;;;;77.1;36.1;;;;;;;;;;;;;-70
2024/05/03 00:41:58;;;;;;;64.6;30.8;;;;;;;;;;;;;-71
2024/05/03 01:12:00;;;;;;;69.1;26.7;;;;;;;;;;;;;-71
2024/05/03 01:42:02;;;;;;;65.1;25.8;;;;;;;;;;;;;-68
2024/05/03 02:12:04;;;;;;;68.4;26.8;;;;;;;;;;;;;-70
2024/05/03 02:42:06;;;;;;;71.1;28.2;;;;;;;;;;;;;-72
2024/05/03 03:12:08;;;;;;;54.2;24.2;;;;;;;;;;;;;-71
2024/05/03 03:42:10;;;;;;;70.1;27.8;;;;;;;;;;;;;-70
2024/05/03 04:12:12;;;;;;;77.7;31.8;;;;;;;;;;;;;-69
2024/05/03 04:42:15;;;;;;;86.5;34.6;;;;;;;;;;;;;-71
2024/05/03 05:12:16;;;;;;;93;36.5;;;;;;;;;;;;;-69
2024/05/03 05:42:18;;;;;;;88.8;36.3;;;;;;;;;;;;;-70
2024/05/03 06:12:20;;;;;;;80.5;32;;;;;;;;;;;;;-70
2024/05/03 06:42:21;;;;;;;61.9;27.8;;;;;;;;;;;;;-72
2024/05/03 07:12:23;;;;;;;40.6;21.3;;;;;;;;;;;;;-74
2024/05/03 07:42:25;;;;;;;32.8;17.2;;;;;;;;;;;;;-76
2024/05/03 08:12:27;;;;;;;18.7;10.9;;;;;;;;;;;;;-73
2024/05/03 08:42:32;;;;;;;26.5;14.1;;;;;;;;;;;;;-66
2024/05/03 09:12:39;;;;;;;20.5;11.6;;;;;;;;;;;;;-67
2024/05/03 09:42:32;;;;;;;15.7;7.3;;;;;;;;;;;;;-71
2024/05/03 10:12:35;;;;;;;5.2;1.7;;;;;;;;;;;;;-70
2024/05/03 10:42:38;;;;;;;7.1;2.5;;;;;;;;;;;;;-84
2024/05/03 11:12:37;;;;;;;4.2;1.3;;;;;;;;;;;;;-79
2024/05/03 11:42:39;;;;;;;3.5;1.2;;;;;;;;;;;;;-73
2024/05/03 12:12:42;;;;;;;1.9;0.9;;;;;;;;;;;;;-76
2024/05/03 12:42:42;;;;;;;5.6;0.9;;;;;;;;;;;;;-72
2024/05/03 13:12:49;;;;;;;5.3;1.4;;;;;;;;;;;;;-74
2024/05/03 13:42:46;;;;;;;5.8;0.9;;;;;;;;;;;;;-74
2024/05/03 14:12:48;;;;;;;6.9;1.5;;;;;;;;;;;;;-73
2024/05/03 14:42:50;;;;;;;4.1;0.9;;;;;;;;;;;;;-74
2024/05/03 15:12:52;;;;;;;10;2.2;;;;;;;;;;;;;-79
2024/05/03 15:42:53;;;;;;;10.1;2.2;;;;;;;;;;;;;-73
2024/05/03 16:12:55;;;;;;;15.3;2.7;;;;;;;;;;;;;-71
2024/05/03 16:42:57;;;;;;;18.1;3.5;;;;;;;;;;;;;-67
2024/05/03 17:12:59;;;;;;;11.4;2;;;;;;;;;;;;;-75
2024/05/03 17:43:00;;;;;;;9.5;2;;;;;;;;;;;;;-76
2024/05/03 18:13:02;;;;;;;10.9;2;;;;;;;;;;;;;-76
2024/05/03 18:43:04;;;;;;;12.4;2.7;;;;;;;;;;;;;-72
2024/05/03 19:13:06;;;;;;;13;2.6;;;;;;;;;;;;;-72
2024/05/03 19:43:07;;;;;;;11.9;2.2;;;;;;;;;;;;;-77
2024/05/03 20:13:09;;;;;;;9.6;1.9;;;;;;;;;;;;;-74
2024/05/03 20:43:10;;;;;;;9.4;1.8;;;;;;;;;;;;;-72
2024/05/03 21:13:12;;;;;;;8.7;3;;;;;;;;;;;;;-75
2024/05/03 21:43:13;;;;;;;11.7;3.4;;;;;;;;;;;;;-78
2024/05/03 22:13:15;;;;;;;13.7;3.9;;;;;;;;;;;;;-77
2024/05/03 22:43:16;;;;;;;14.9;4.6;;;;;;;;;;;;;-74
2024/05/03 23:13:17;;;;;;;14.8;6;;;;;;;;;;;;;-74
2024/05/03 23:43:19;;;;;;;18.3;9;;;;;;;;;;;;;-75
